Time;durP1;ratioP1;P1;durP2;ratioP2;P2;SDS_P1;SDS_P2;PMS_P1;PMS_P2;Temp;Humidity;BMP_temperature;BMP_pressure;BME280_temperature;BME280_humidity;BME280_pressure;Samples;Min_cycle;Max_cycle;Signal;HPM_P1;HPM_P2
2021/10/04 00:00:08;;;;;;;4.18;2.17;;;;;;;;;;5076939;28;20393;-89
2021/10/04 00:02:34;;;;;;;4.15;2.28;;;;;;;;;;5078526;28;20422;-90
2021/10/04 00:05:00;;;;;;;3.45;2.33;;;;;;;;;;5074989;28;20028;-90
2021/10/04 00:07:26;;;;;;;3.75;2.28;;;;;;;;;;5077137;28;20024;-90
2021/10/04 00:09:52;;;;;;;3.13;2.10;;;;;;;;;;5076973;28;20059;-89
2021/10/04 00:12:18;;;;;;;3.95;2.28;;;;;;;;;;5082128;28;20032;-88
2021/10/04 00:14:48;;;;;;;3.25;2.08;;;;;;;;;;5073028;28;20059;-88
2021/10/04 00:17:14;;;;;;;4.05;2.42;;;;;;;;;;5079397;28;20029;-88
2021/10/04 00:19:40;;;;;;;2.45;1.75;;;;;;;;;;5088221;28;20432;-89
2021/10/04 00:22:06;;;;;;;5.40;1.90;;;;;;;;;;5084912;28;20028;-88
2021/10/04 00:24:32;;;;;;;3.92;2.20;;;;;;;;;;5074524;28;20115;-89
2021/10/04 00:26:59;;;;;;;2.92;2.05;;;;;;;;;;5077774;28;20021;-88
2021/10/04 00:29:25;;;;;;;4.75;2.13;;;;;;;;;;5073576;28;20029;-89
2021/10/04 00:31:51;;;;;;;5.75;2.40;;;;;;;;;;5081830;28;20021;-86
2021/10/04 00:34:17;;;;;;;2.90;2.40;;;;;;;;;;5086256;28;20035;-87
2021/10/04 00:36:43;;;;;;;4.38;2.63;;;;;;;;;;5082108;28;20096;-86
2021/10/04 00:39:09;;;;;;;3.78;2.58;;;;;;;;;;5074956;28;20031;-87
2021/10/04 00:41:35;;;;;;;5.03;3.13;;;;;;;;;;5078422;28;20025;-87
2021/10/04 00:44:01;;;;;;;4.00;2.75;;;;;;;;;;5079116;28;20021;-90
2021/10/04 00:46:28;;;;;;;4.43;3.13;;;;;;;;;;5078717;28;20036;-88
2021/10/04 00:48:54;;;;;;;5.80;3.90;;;;;;;;;;5083739;28;20490;-87
2021/10/04 00:51:21;;;;;;;5.93;3.15;;;;;;;;;;5082033;28;20017;-88
2021/10/04 00:53:48;;;;;;;6.80;3.10;;;;;;;;;;5081458;28;20033;-87
2021/10/04 00:56:21;;;;;;;5.30;3.55;;;;;;;;;;5083155;28;20029;-88
2021/10/04 00:58:48;;;;;;;5.47;3.28;;;;;;;;;;5078837;28;20024;-88
2021/10/04 01:01:17;;;;;;;5.18;3.30;;;;;;;;;;5088529;28;20036;-91
2021/10/04 01:03:44;;;;;;;5.20;3.50;;;;;;;;;;5083522;28;20125;-89
2021/10/04 01:06:10;;;;;;;4.93;3.67;;;;;;;;;;5079717;28;20092;-85
2021/10/04 01:08:36;;;;;;;9.57;3.45;;;;;;;;;;5075880;28;20024;-89
2021/10/04 01:11:02;;;;;;;10.00;3.97;;;;;;;;;;5083291;28;20025;-88
2021/10/04 01:13:28;;;;;;;7.50;3.95;;;;;;;;;;5075458;28;20021;-90
2021/10/04 01:15:55;;;;;;;14.73;5.55;;;;;;;;;;5078119;28;20036;-90
2021/10/04 01:18:24;;;;;;;5.32;3.38;;;;;;;;;;5083233;28;20024;-91
2021/10/04 01:20:50;;;;;;;6.30;3.85;;;;;;;;;;5087858;28;20119;-90
2021/10/04 01:23:16;;;;;;;5.30;3.70;;;;;;;;;;5082528;28;20028;-88
2021/10/04 01:25:42;;;;;;;5.63;3.30;;;;;;;;;;5074162;28;20029;-88
2021/10/04 01:28:09;;;;;;;5.15;3.58;;;;;;;;;;5087067;28;20050;-88
2021/10/04 01:30:35;;;;;;;5.80;3.40;;;;;;;;;;5081688;28;20056;-89
2021/10/04 01:33:01;;;;;;;4.85;3.15;;;;;;;;;;5084844;28;20032;-87
2021/10/04 01:35:27;;;;;;;5.03;3.40;;;;;;;;;;5077423;28;20028;-88
2021/10/04 01:37:53;;;;;;;4.88;3.05;;;;;;;;;;5082516;28;20067;-88
2021/10/04 01:40:20;;;;;;;4.97;3.10;;;;;;;;;;5081028;28;20028;-88
2021/10/04 01:42:46;;;;;;;6.90;2.80;;;;;;;;;;5081850;28;20029;-91
2021/10/04 01:45:15;;;;;;;5.47;3.20;;;;;;;;;;5078833;28;20036;-87
2021/10/04 01:47:41;;;;;;;4.00;2.92;;;;;;;;;;5081417;28;20024;-87
2021/10/04 01:50:08;;;;;;;4.57;2.75;;;;;;;;;;5079792;28;20034;-88
2021/10/04 01:52:34;;;;;;;5.07;2.55;;;;;;;;;;5077428;28;20025;-88
2021/10/04 01:55:01;;;;;;;4.50;2.67;;;;;;;;;;5075864;28;20116;-88
2021/10/04 01:57:27;;;;;;;4.63;2.20;;;;;;;;;;5080093;28;20127;-88
2021/10/04 01:59:54;;;;;;;3.67;2.50;;;;;;;;;;5078573;28;20033;-88
2021/10/04 02:02:20;;;;;;;2.85;2.05;;;;;;;;;;5072489;28;20115;-88
2021/10/04 02:04:46;;;;;;;2.70;1.70;;;;;;;;;;5079739;28;20127;-89
2021/10/04 02:07:12;;;;;;;2.10;1.48;;;;;;;;;;5080809;28;20021;-85
2021/10/04 02:09:38;;;;;;;4.18;1.90;;;;;;;;;;5082219;28;20036;-85
2021/10/04 02:12:05;;;;;;;2.40;1.58;;;;;;;;;;5088675;28;20017;-85
2021/10/04 02:14:33;;;;;;;2.67;1.50;;;;;;;;;;5084016;28;20024;-87
2021/10/04 02:16:59;;;;;;;2.67;1.80;;;;;;;;;;5090697;28;20028;-85
2021/10/04 02:19:28;;;;;;;3.83;1.77;;;;;;;;;;5082515;28;20095;-90
2021/10/04 02:21:55;;;;;;;3.40;2.00;;;;;;;;;;5084101;28;20040;-86
2021/10/04 02:24:21;;;;;;;5.55;2.55;;;;;;;;;;5081946;28;20048;-89
2021/10/04 02:26:47;;;;;;;3.17;2.20;;;;;;;;;;5081811;28;20120;-88
2021/10/04 02:29:13;;;;;;;4.85;2.47;;;;;;;;;;5076361;28;20021;-88
2021/10/04 02:31:39;;;;;;;3.55;2.13;;;;;;;;;;5086028;28;20021;-88
2021/10/04 02:34:05;;;;;;;4.65;2.88;;;;;;;;;;5077428;28;20036;-86
2021/10/04 02:36:31;;;;;;;4.15;2.20;;;;;;;;;;5081105;28;20029;-88
2021/10/04 02:38:57;;;;;;;5.85;2.70;;;;;;;;;;5088348;28;20111;-86
2021/10/04 02:41:23;;;;;;;5.05;3.00;;;;;;;;;;5086315;28;20025;-91
2021/10/04 02:43:49;;;;;;;3.97;2.20;;;;;;;;;;5076455;28;20024;-86
2021/10/04 02:46:16;;;;;;;4.18;2.20;;;;;;;;;;5082640;28;20053;-88
2021/10/04 02:48:42;;;;;;;5.70;2.70;;;;;;;;;;5099162;28;20025;-86
2021/10/04 02:51:08;;;;;;;5.13;3.33;;;;;;;;;;5079729;28;20025;-86
2021/10/04 02:53:34;;;;;;;7.40;3.42;;;;;;;;;;5080186;28;20028;-86
2021/10/04 02:56:04;;;;;;;5.95;3.42;;;;;;;;;;5093082;28;20024;-85
2021/10/04 02:58:30;;;;;;;5.55;3.17;;;;;;;;;;5083385;28;20025;-86
2021/10/04 03:00:56;;;;;;;4.63;3.00;;;;;;;;;;5076040;28;20043;-87
2021/10/04 03:03:22;;;;;;;6.63;3.83;;;;;;;;;;5083481;28;20046;-88
2021/10/04 03:05:48;;;;;;;5.15;3.30;;;;;;;;;;5083937;28;20056;-85
2021/10/04 03:08:14;;;;;;;5.47;2.80;;;;;;;;;;5079558;28;20021;-86
2021/10/04 03:10:41;;;;;;;4.22;2.60;;;;;;;;;;5075311;28;20029;-87
2021/10/04 03:13:07;;;;;;;3.63;2.58;;;;;;;;;;5074698;28;20044;-88
2021/10/04 03:15:34;;;;;;;5.57;2.90;;;;;;;;;;5080693;28;20033;-89
2021/10/04 03:18:00;;;;;;;5.65;3.00;;;;;;;;;;5078563;28;20102;-87
2021/10/04 03:20:26;;;;;;;4.75;3.08;;;;;;;;;;5074625;28;20025;-87
2021/10/04 03:22:54;;;;;;;4.95;2.55;;;;;;;;;;5073893;28;20052;-87
2021/10/04 03:25:20;;;;;;;3.08;2.22;;;;;;;;;;5072437;28;20123;-86
2021/10/04 03:27:46;;;;;;;3.60;2.20;;;;;;;;;;5085336;28;20037;-88
2021/10/04 03:30:12;;;;;;;3.95;2.10;;;;;;;;;;5072673;28;20604;-87
2021/10/04 03:32:39;;;;;;;2.67;2.00;;;;;;;;;;5071065;28;20039;-85
2021/10/04 03:35:05;;;;;;;3.03;2.35;;;;;;;;;;5072496;28;20492;-87
2021/10/04 03:37:31;;;;;;;3.42;2.30;;;;;;;;;;5068916;28;20028;-85
2021/10/04 03:39:57;;;;;;;3.40;2.20;;;;;;;;;;5072508;28;20028;-86
2021/10/04 03:42:23;;;;;;;4.80;2.38;;;;;;;;;;5071275;28;20036;-87
2021/10/04 03:44:49;;;;;;;4.07;2.67;;;;;;;;;;5072124;28;20024;-88
2021/10/04 03:47:16;;;;;;;3.47;2.40;;;;;;;;;;5071113;28;20031;-87
2021/10/04 03:49:42;;;;;;;4.03;2.53;;;;;;;;;;5073922;28;20024;-88
2021/10/04 03:52:08;;;;;;;3.97;2.60;;;;;;;;;;5072997;28;20838;-86
2021/10/04 03:54:34;;;;;;;4.13;2.58;;;;;;;;;;5074484;28;20532;-89
2021/10/04 03:57:00;;;;;;;4.80;2.58;;;;;;;;;;5076702;28;20028;-89
2021/10/04 03:59:26;;;;;;;3.45;2.40;;;;;;;;;;5072087;28;20074;-85
2021/10/04 04:01:52;;;;;;;4.22;2.50;;;;;;;;;;5070190;28;20528;-84
2021/10/04 04:04:18;;;;;;;4.30;2.58;;;;;;;;;;5070017;28;20032;-86
2021/10/04 04:06:44;;;;;;;6.97;2.85;;;;;;;;;;5074743;28;20066;-86
2021/10/04 04:09:14;;;;;;;3.78;2.38;;;;;;;;;;5076256;28;20044;-86
2021/10/04 04:11:40;;;;;;;4.20;2.90;;;;;;;;;;5073960;28;20046;-89
2021/10/04 04:14:06;;;;;;;4.22;2.83;;;;;;;;;;5073910;28;20021;-87
2021/10/04 04:16:32;;;;;;;4.65;2.70;;;;;;;;;;5071889;28;20024;-88
2021/10/04 04:18:58;;;;;;;4.55;2.90;;;;;;;;;;5077364;28;20067;-90
2021/10/04 04:21:46;;;;;;;4.05;2.45;;;;;;;;;;5072616;28;20040;-88
2021/10/04 04:24:16;;;;;;;4.53;2.72;;;;;;;;;;5072253;28;20033;-86
2021/10/04 04:26:42;;;;;;;;;;;13.20;99.90;;;;;;5080019;28;20107;-87
2021/10/04 04:29:11;;;;;;;5.88;2.90;;;;;;;;;;5073515;28;19946;-86
2021/10/04 04:31:37;;;;;;;4.38;2.50;;;;;;;;;;5073322;28;20469;-89
2021/10/04 04:34:03;;;;;;;4.40;2.50;;;;;;;;;;5080368;28;20107;-86
2021/10/04 04:36:29;;;;;;;4.72;3.10;;;;;;;;;;5079176;28;20043;-88
2021/10/04 04:38:55;;;;;;;5.00;2.92;;;;;;;;;;5071744;28;20056;-89
2021/10/04 04:41:21;;;;;;;5.63;2.67;;;;;;;;;;5071923;28;20037;-87
2021/10/04 04:43:47;;;;;;;4.05;2.90;;;;;;;;;;5075658;28;20027;-84
2021/10/04 04:46:13;;;;;;;4.95;2.78;;;;;;;;;;5070849;28;20044;-87
2021/10/04 04:48:39;;;;;;;4.75;3.03;;;;;;;;;;5077324;28;20054;-88
2021/10/04 04:51:05;;;;;;;3.53;2.75;;;;;;;;;;5074401;28;20044;-88
2021/10/04 04:53:31;;;;;;;3.80;2.60;;;;;;;;;;5080239;28;20555;-88
2021/10/04 04:55:57;;;;;;;3.72;2.70;;;;;;;;;;5077703;28;20029;-88
2021/10/04 04:58:23;;;;;;;9.15;3.17;;;;;;;;;;5080957;28;20036;-90
2021/10/04 05:00:49;;;;;;;3.72;2.58;;;;;;;;;;5079062;28;20024;-88
2021/10/04 05:03:17;;;;;;;3.60;2.60;;;;;;;;;;5072932;28;20021;-86
2021/10/04 05:05:44;;;;;;;4.93;2.72;;;;;;;;;;5071710;28;20032;-89
2021/10/04 05:08:10;;;;;;;4.70;3.22;;;;;;;;;;5081915;28;20017;-86
2021/10/04 05:10:36;;;;;;;27.90;16.10;;;;;;;;;;5074609;28;20547;-88
2021/10/04 05:13:02;;;;;;;23.45;13.77;;;;;;;;;;5079031;28;20047;-88
2021/10/04 05:15:30;;;;;;;38.40;17.02;;;;;;;;;;5076215;28;20889;-90
2021/10/04 05:17:56;;;;;;;31.45;14.63;;;;;;;;;;5072389;28;20090;-87
2021/10/04 05:20:22;;;;;;;23.98;11.48;;;;;;;;;;5075500;28;20044;-89
2021/10/04 05:22:48;;;;;;;13.77;7.05;;;;;;;;;;5076317;28;20035;-89
2021/10/04 05:25:14;;;;;;;9.45;4.80;;;;;;;;;;5074018;28;20039;-90
2021/10/04 05:27:40;;;;;;;10.50;4.68;;;;;;;;;;5076384;28;20025;-89
2021/10/04 05:30:07;;;;;;;6.18;3.22;;;;;;;;;;5080824;28;20175;-87
2021/10/04 05:32:33;;;;;;;7.30;4.43;;;;;;;;;;5081159;28;20036;-88
2021/10/04 05:34:59;;;;;;;6.60;3.65;;;;;;;;;;5076917;28;20028;-88
2021/10/04 05:37:25;;;;;;;6.15;3.72;;;;;;;;;;5079066;28;20033;-88
2021/10/04 05:39:51;;;;;;;7.15;4.25;;;;;;;;;;5074429;28;20037;-90
2021/10/04 05:42:17;;;;;;;7.05;4.13;;;;;;;;;;5074833;28;20047;-87
2021/10/04 05:44:45;;;;;;;7.03;4.13;;;;;;;;;;5075211;28;20081;-89
2021/10/04 05:47:11;;;;;;;7.05;4.40;;;;;;;;;;5072702;28;20040;-90
2021/10/04 05:49:37;;;;;;;11.73;5.03;;;;;;;;;;5076805;28;20029;-90
2021/10/04 05:52:03;;;;;;;7.93;4.05;;;;;;;;;;5081968;28;20048;-88
2021/10/04 05:54:29;;;;;;;7.88;4.93;;;;;;;;;;5089049;28;20073;-90
2021/10/04 05:56:56;;;;;;;8.57;4.60;;;;;;;;;;5083101;28;20558;-88
2021/10/04 05:59:22;;;;;;;5.60;4.10;;;;;;;;;;5082339;28;20039;-88
2021/10/04 06:01:48;;;;;;;6.30;4.00;;;;;;;;;;5078766;28;20056;-90
2021/10/04 06:04:14;;;;;;;5.03;3.72;;;;;;;;;;5078922;28;20036;-90
2021/10/04 06:06:40;;;;;;;7.68;3.97;;;;;;;;;;5079342;28;20088;-88
2021/10/04 06:09:06;;;;;;;6.03;3.67;;;;;;;;;;5081278;28;20020;-88
2021/10/04 06:11:32;;;;;;;5.47;3.22;;;;;;;;;;5080372;28;20024;-90
2021/10/04 06:13:58;;;;;;;3.30;2.42;;;;;;;;;;5076118;28;20028;-88
2021/10/04 06:16:24;;;;;;;5.03;2.40;;;;;;;;;;5076473;28;20033;-88
2021/10/04 06:18:50;;;;;;;4.72;2.60;;;;;;;;;;5080852;28;20123;-89
2021/10/04 06:21:17;;;;;;;2.55;2.05;;;;;;;;;;5081332;28;20257;-88
2021/10/04 06:23:43;;;;;;;2.50;1.95;;;;;;;;;;5084964;28;20029;-88
2021/10/04 06:26:09;;;;;;;3.08;2.08;;;;;;;;;;5091227;28;20047;-88
2021/10/04 06:28:35;;;;;;;3.22;2.00;;;;;;;;;;5081773;28;20108;-88
2021/10/04 06:31:02;;;;;;;3.97;2.30;;;;;;;;;;5078740;28;20037;-87
2021/10/04 06:33:31;;;;;;;2.92;2.13;;;;;;;;;;5076780;28;20031;-86
2021/10/04 06:35:57;;;;;;;3.20;1.98;;;;;;;;;;5078492;28;20478;-86
2021/10/04 06:38:23;;;;;;;3.28;2.10;;;;;;;;;;5076600;28;20508;-85
2021/10/04 06:40:49;;;;;;;3.80;1.92;;;;;;;;;;5077574;28;20056;-86
2021/10/04 06:43:15;;;;;;;3.28;2.10;;;;;;;;;;5074175;28;20064;-85
2021/10/04 06:45:41;;;;;;;2.72;1.70;;;;;;;;;;5076215;28;20060;-87
2021/10/04 06:48:07;;;;;;;2.30;1.75;;;;;;;;;;5074330;28;20053;-88
2021/10/04 06:50:33;;;;;;;2.63;1.60;;;;;;;;;;5075582;28;20017;-83
2021/10/04 06:52:59;;;;;;;2.20;1.42;;;;;;;;;;5065943;28;20032;-88
2021/10/04 06:55:25;;;;;;;4.43;1.80;;;;;;;;;;5073372;28;20028;-87
2021/10/04 06:57:51;;;;;;;3.65;2.22;;;;;;;;;;5074885;28;20041;-87
2021/10/04 07:00:20;;;;;;;3.20;1.90;;;;;;;;;;5071846;28;20119;-86
2021/10/04 07:02:47;;;;;;;2.80;1.70;;;;;;;;;;5072539;28;20071;-87
2021/10/04 07:05:13;;;;;;;2.80;1.70;;;;;;;;;;5069503;28;20039;-87
2021/10/04 07:07:39;;;;;;;2.92;1.70;;;;;;;;;;5069222;28;20025;-87
2021/10/04 07:10:06;;;;;;;3.33;1.52;;;13.40;99.90;;;;;;5075595;28;20039;-87
2021/10/04 07:12:32;;;;;;;1.95;1.48;;;;;;;;;;5076329;28;20029;-86
2021/10/04 07:14:58;;;;;;;2.60;1.70;;;;;;;;;;5076628;28;20035;-87
2021/10/04 07:17:27;;;;;;;5.15;1.95;;;;;;;;;;5080883;28;20054;-88
2021/10/04 07:19:53;;;;;;;1.85;1.30;;;;;;;;;;5075185;28;20044;-87
2021/10/04 07:22:19;;;;;;;2.85;1.63;;;;;;;;;;5075511;28;20024;-87
2021/10/04 07:24:45;;;;;;;2.75;1.30;;;;;;;;;;5073866;28;20513;-89
2021/10/04 07:27:11;;;;;;;2.25;1.30;;;;;;;;;;5072383;28;20032;-88
2021/10/04 07:29:40;;;;;;;1.75;1.17;;;;;;;;;;5073990;28;20035;-88
2021/10/04 07:32:06;;;;;;;2.97;1.33;;;;;;;;;;5075218;28;20070;-89
2021/10/04 07:34:33;;;;;;;3.15;1.27;;;13.70;99.90;;;;;;5071433;28;20029;-87
2021/10/04 07:36:59;;;;;;;2.15;1.30;;;;;;;;;;5072636;28;20074;-89
2021/10/04 07:39:25;;;;;;;4.00;1.20;;;;;;;;;;5070541;28;20104;-89
2021/10/04 07:41:51;;;;;;;2.75;1.40;;;;;;;;;;5073198;28;20028;-89
2021/10/04 07:44:20;;;;;;;2.63;1.40;;;;;;;;;;5070280;28;21392;-88
2021/10/04 07:46:47;;;;;;;3.00;1.48;;;;;;;;;;5069507;28;20024;-90
2021/10/04 07:49:14;;;;;;;3.95;1.50;;;;;;;;;;5075154;28;20039;-89
2021/10/04 07:51:40;;;;;;;2.28;1.63;;;;;;;;;;5071836;28;20043;-87
2021/10/04 07:54:06;;;;;;;2.05;1.15;;;;;;;;;;5069588;28;20024;-87
2021/10/04 07:56:32;;;;;;;2.70;1.60;;;;;;;;;;5068847;28;20032;-90
2021/10/04 07:58:58;;;;;;;4.78;1.90;;;;;;;;;;5069532;28;20042;-85
2021/10/04 08:01:27;;;;;;;2.30;1.38;;;;;;;;;;5065872;28;20032;-88
2021/10/04 08:03:54;;;;;;;3.22;1.67;;;;;;;;;;5068237;28;20521;-86
2021/10/04 08:06:21;;;;;;;3.22;1.70;;;;;;;;;;5068160;28;20497;-87
2021/10/04 08:08:48;;;;;;;3.33;1.50;;;;;;;;;;5066674;28;20028;-85
2021/10/04 08:11:14;;;;;;;1.90;1.30;;;;;;;;;;5066593;28;20027;-89
2021/10/04 08:13:42;;;;;;;7.55;2.67;;;;;;;;;;5065952;28;20025;-87
2021/10/04 08:16:08;;;;;;;2.67;1.27;;;;;;;;;;5064616;28;20643;-89
2021/10/04 08:18:34;;;;;;;2.58;1.50;;;;;;;;;;5065606;28;20020;-88
2021/10/04 08:21:00;;;;;;;2.10;1.40;;;;;;;;;;5068974;28;20543;-85
2021/10/04 08:23:26;;;;;;;2.65;1.35;;;;;;;;;;5069531;28;20016;-88
2021/10/04 08:25:52;;;;;;;2.40;1.00;;;;;;;;;;5065378;28;20032;-90
2021/10/04 08:28:18;;;;;;;1.02;0.93;;;;;;;;;;5063645;28;20963;-90
2021/10/04 08:30:44;;;;;;;1.50;1.00;;;;;;;;;;5071276;28;20055;-86
2021/10/04 08:33:10;;;;;;;1.70;1.05;;;;;;;;;;5070553;28;20084;-88
2021/10/04 08:35:36;;;;;;;2.20;1.30;;;;;;;;;;5070288;28;20028;-83
2021/10/04 08:38:02;;;;;;;1.35;1.10;;;;;;;;;;5079574;28;20118;-88
2021/10/04 08:40:28;;;;;;;1.45;1.00;;;;;;;;;;5068010;28;20020;-89
2021/10/04 08:42:54;;;;;;;4.65;2.00;;;;;;;;;;5074937;28;20148;-88
2021/10/04 08:45:27;;;;;;;3.55;1.38;;;14.10;99.90;;;;;;5067936;28;20060;-85
2021/10/04 08:47:58;;;;;;;2.10;1.40;;;;;;;;;;5079432;28;20052;-87
2021/10/04 08:50:24;;;;;;;1.40;1.10;;;;;;;;;;5069599;28;20028;-87
2021/10/04 08:52:50;;;;;;;2.58;1.40;;;;;;;;;;5072243;28;20032;-89
2021/10/04 08:55:18;;;;;;;2.63;1.05;;;;;;;;;;5066572;28;20143;-89
2021/10/04 08:57:44;;;;;;;2.97;1.10;;;;;;;;;;5074481;28;20024;-88
2021/10/04 09:00:11;;;;;;;4.85;2.90;;;;;;;;;;5065134;28;20044;-89
2021/10/04 09:02:37;;;;;;;2.85;1.55;;;;;;;;;;5066228;28;20107;-88
2021/10/04 09:05:16;;;;;;;2.55;1.42;;;;;;;;;;5075696;28;20147;-85
2021/10/04 09:07:44;;;;;;;1.88;0.90;;;;;;;;;;5068609;28;20446;-86
2021/10/04 09:10:12;;;;;;;1.70;0.80;;;;;;;;;;5073206;28;20033;-88
2021/10/04 09:13:04;;;;;;;3.42;1.50;;;;;;;;;;5069120;28;20025;-88
2021/10/04 09:15:40;;;;;;;2.08;1.00;;;;;;;;;;5066582;28;20059;-85
2021/10/04 09:18:09;;;;;;;3.38;1.20;;;;;;;;;;5064969;28;20050;-84
2021/10/04 09:20:48;;;;;;;1.38;0.75;;;;;;;;;;5065843;28;20028;-86
2021/10/04 09:23:30;;;;;;;3.42;0.98;;;;;;;;;;5071102;28;20025;-89
2021/10/04 09:25:56;;;;;;;2.15;1.30;;;;;;;;;;5066962;28;20489;-87
2021/10/04 09:28:36;;;;;;;2.42;0.98;;;;;;;;;;5068300;28;20474;-88
2021/10/04 09:31:24;;;;;;;1.00;0.90;;;14.60;99.90;;;;;;5066131;28;20027;-87
2021/10/04 09:34:00;;;;;;;3.38;1.60;;;;;;;;;;5065783;28;20028;-87
2021/10/04 09:36:26;;;;;;;0.80;0.70;;;;;;;;;;5069373;28;20012;-85
2021/10/04 09:39:08;;;;;;;3.40;1.35;;;;;;;;;;5069656;28;20107;-87
2021/10/04 09:41:34;;;;;;;1.30;0.80;;;;;;;;;;5067142;28;20035;-88
2021/10/04 09:44:04;;;;;;;1.13;0.77;;;;;;;;;;5068302;28;20650;-87
2021/10/04 09:46:33;;;;;;;1.10;0.87;;;;;;;;;;5069913;28;20025;-87
2021/10/04 09:49:03;;;;;;;1.63;1.08;;;;;;;;;;5066891;28;20032;-86
2021/10/04 09:51:29;;;;;;;2.00;1.20;;;;;;;;;;5071008;28;20031;-87
2021/10/04 09:54:08;;;;;;;2.05;1.00;;;;;;;;;;5070074;28;20029;-87
2021/10/04 09:56:34;;;;;;;1.95;0.95;;;;;;;;;;5070136;28;20028;-88
2021/10/04 09:59:00;;;;;;;2.15;0.98;;;;;;;;;;5071878;28;20107;-85
2021/10/04 10:01:26;;;;;;;1.05;0.90;;;;;;;;;;5069695;28;20107;-87
2021/10/04 10:03:53;;;;;;;1.40;0.70;;;;;;;;;;5071063;28;20021;-85
2021/10/04 10:06:19;;;;;;;1.50;0.68;;;;;;;;;;5074729;28;20063;-84
2021/10/04 10:08:45;;;;;;;0.85;0.80;;;;;;;;;;5072953;28;20024;-87
2021/10/04 10:11:17;;;;;;;1.15;0.70;;;;;;;;;;5077355;28;20382;-85
2021/10/04 10:13:43;;;;;;;1.15;0.80;;;;;;;;;;5069823;28;20040;-87
2021/10/04 10:16:15;;;;;;;0.80;0.73;;;15.10;99.90;;;;;;5071210;28;20041;-85
2021/10/04 10:18:53;;;;;;;3.90;1.30;;;;;;;;;;5074889;28;20031;-82
2021/10/04 10:21:20;;;;;;;1.23;0.90;;;;;;;;;;5073887;28;20115;-86
2021/10/04 10:23:56;;;;;;;1.42;0.82;;;;;;;;;;5070607;28;20059;-82
2021/10/04 10:26:28;;;;;;;1.48;1.00;;;15.20;99.90;;;;;;5073442;28;20497;-87
2021/10/04 10:29:24;;;;;;;3.30;1.38;;;;;;;;;;5077527;28;20028;-87
2021/10/04 10:31:56;;;;;;;1.67;0.90;;;;;;;;;;5063208;28;20168;-85
2021/10/04 10:34:25;;;;;;;0.77;0.73;;;;;;;;;;5093301;28;20121;-86
2021/10/04 10:37:08;;;;;;;1.73;0.80;;;;;;;;;;5083958;28;20036;-87
2021/10/04 10:39:46;;;;;;;1.33;0.80;;;15.40;99.90;;;;;;5078721;28;20029;-88
2021/10/04 10:42:17;;;;;;;3.10;0.90;;;;;;;;;;5081396;28;20024;-87
2021/10/04 10:45:09;;;;;;;1.02;0.75;;;;;;;;;;5081923;28;20025;-87
2021/10/04 10:47:36;;;;;;;1.85;0.80;;;;;;;;;;5079217;28;20020;-89
2021/10/04 10:50:08;;;;;;;1.13;0.80;;;;;;;;;;5080648;28;20027;-88
2021/10/04 10:52:38;;;;;;;2.72;1.30;;;;;;;;;;5082216;28;20036;-87
2021/10/04 10:55:20;;;;;;;1.70;0.93;;;;;;;;;;5077210;28;20032;-86
2021/10/04 10:57:52;;;;;;;2.17;0.75;;;;;;;;;;5071980;28;20040;-87
2021/10/04 11:00:19;;;;;;;1.10;0.77;;;;;;;;;;5083173;28;20028;-86
2021/10/04 11:02:48;;;;;;;2.08;1.15;;;;;;;;;;5076647;28;20393;-86
2021/10/04 11:05:33;;;;;;;1.38;0.80;;;;;;;;;;5073169;28;20037;-89
2021/10/04 11:07:59;;;;;;;1.67;0.95;;;;;;;;;;5077905;28;20531;-88
2021/10/04 11:10:25;;;;;;;0.93;0.73;;;;;;;;;;5078051;28;20044;-87
2021/10/04 11:13:10;;;;;;;8.52;1.20;;;;;;;;;;5070065;28;20453;-85
2021/10/04 11:15:35;;;;;;;0.73;0.70;;;;;;;;;;5073448;28;20049;-85
2021/10/04 11:18:02;;;;;;;1.35;0.82;;;;;;;;;;5073214;28;20028;-85
2021/10/04 11:20:28;;;;;;;1.48;0.93;;;;;;;;;;5073610;28;20025;-87
2021/10/04 11:23:04;;;;;;;2.53;0.77;;;;;;;;;;5073519;28;20025;-87
2021/10/04 11:25:54;;;;;;;1.55;0.75;;;16.20;99.90;;;;;;5073831;28;20032;-86
2021/10/04 11:28:41;;;;;;;0.93;0.60;;;16.20;99.90;;;;;;5070057;28;20066;-88
2021/10/04 11:31:09;;;;;;;1.25;0.80;;;;;;;;;;5073242;28;20539;-88
2021/10/04 11:33:38;;;;;;;2.17;0.90;;;;;;;;;;5072916;28;20020;-88
2021/10/04 11:36:05;;;;;;;0.88;0.70;;;;;;;;;;5073710;28;20031;-84
2021/10/04 11:38:34;;;;;;;1.58;1.00;;;;;;;;;;5075118;28;20055;-88
2021/10/04 11:41:00;;;;;;;0.80;0.70;;;;;;;;;;5075340;28;20106;-88
2021/10/04 11:43:28;;;;;;;0.70;0.70;;;;;;;;;;5068727;28;20033;-86
2021/10/04 11:45:55;;;;;;;2.35;1.77;;;16.20;99.90;;;;;;5068686;28;20419;-86
2021/10/04 11:48:27;;;;;;;0.82;0.70;;;;;;;;;;5074702;28;20115;-85
2021/10/04 11:50:55;;;;;;;1.15;0.63;;;;;;;;;;5069211;28;20063;-86
2021/10/04 11:53:24;;;;;;;0.68;0.60;;;;;;;;;;5074025;28;20024;-87
2021/10/04 11:55:57;;;;;;;1.10;0.90;;;;;;;;;;5071517;28;20024;-87
2021/10/04 11:58:23;;;;;;;2.08;0.90;;;;;;;;;;5075957;28;20080;-89
2021/10/04 12:00:49;;;;;;;1.23;0.63;;;;;;;;;;5080465;28;20037;-86
2021/10/04 12:03:28;;;;;;;1.10;0.68;;;;;;;;;;5076939;28;20073;-88
2021/10/04 12:05:55;;;;;;;1.48;0.80;;;;;;;;;;5073475;28;20074;-86
2021/10/04 12:08:22;;;;;;;1.85;0.77;;;;;;;;;;5070564;28;20750;-87
2021/10/04 12:10:54;;;;;;;1.20;0.70;;;;;;;;;;5070262;28;20060;-85
2021/10/04 12:13:23;;;;;;;2.80;0.88;;;17.10;98.90;;;;;;5068520;28;20017;-83
2021/10/04 12:15:51;;;;;;;1.95;0.60;;;;;;;;;;5064231;28;20036;-87
2021/10/04 12:18:21;;;;;;;2.55;0.90;;;;;;;;;;5066576;28;20040;-86
2021/10/04 12:20:48;;;;;;;1.77;0.70;;;;;;;;;;5068322;28;20032;-87
2021/10/04 12:23:16;;;;;;;1.80;0.63;;;;;;;;;;5067966;28;20037;-87
2021/10/04 12:25:42;;;;;;;1.83;0.60;;;;;;;;;;5071165;28;20586;-88
2021/10/04 12:28:08;;;;;;;2.03;0.70;;;;;;;;;;5079793;28;20042;-86
2021/10/04 12:31:01;;;;;;;1.80;0.73;;;;;;;;;;5072496;28;20025;-85
2021/10/04 12:33:53;;;;;;;0.98;0.75;;;;;;;;;;5069172;28;20040;-89
2021/10/04 12:36:19;;;;;;;1.23;0.88;;;;;;;;;;5065586;28;20040;-86
2021/10/04 12:38:52;;;;;;;0.95;0.77;;;;;;;;;;5070297;28;20053;-87
2021/10/04 12:41:18;;;;;;;2.13;1.02;;;;;;;;;;5063051;28;20039;-86
2021/10/04 12:43:46;;;;;;;0.68;0.60;;;;;;;;;;5066482;28;20020;-88
2021/10/04 12:46:17;;;;;;;2.03;0.80;;;;;;;;;;5067785;28;20039;-88
2021/10/04 12:48:45;;;;;;;1.63;1.13;;;;;;;;;;5074090;28;20076;-87
2021/10/04 12:51:13;;;;;;;2.22;0.65;;;;;;;;;;5072984;28;20096;-85
2021/10/04 12:53:52;;;;;;;3.92;1.40;;;;;;;;;;5073059;28;20054;-88
2021/10/04 12:56:24;;;;;;;2.35;0.70;;;;;;;;;;5075661;28;20024;-86
2021/10/04 12:58:59;;;;;;;1.65;0.90;;;;;;;;;;5076582;28;20027;-86
2021/10/04 13:01:25;;;;;;;1.10;0.70;;;;;;;;;;5066178;28;20116;-86
2021/10/04 13:03:51;;;;;;;1.90;0.68;;;;;;;;;;5070574;28;20048;-86
2021/10/04 13:06:17;;;;;;;1.08;0.70;;;;;;;;;;5065391;28;20429;-86
2021/10/04 13:08:43;;;;;;;2.67;0.90;;;;;;;;;;5066821;28;20036;-87
2021/10/04 13:11:09;;;;;;;0.95;0.50;;;;;;;;;;5073336;28;20024;-88
2021/10/04 13:13:38;;;;;;;0.68;0.60;;;;;;;;;;5069892;28;20025;-83
2021/10/04 13:16:09;;;;;;;2.05;0.60;;;;;;;;;;5078915;28;20032;-85
2021/10/04 13:18:36;;;;;;;0.93;0.50;;;;;;;;;;5077040;28;20037;-84
2021/10/04 13:21:02;;;;;;;0.77;0.52;;;;;;;;;;5073256;28;20042;-86
2021/10/04 13:23:28;;;;;;;3.42;0.90;;;;;;;;;;5075524;28;20029;-86
2021/10/04 13:25:55;;;;;;;2.78;0.70;;;;;;;;;;5075419;28;20096;-85
2021/10/04 13:28:21;;;;;;;1.23;0.50;;;;;;;;;;5076353;28;20016;-86
2021/10/04 13:30:47;;;;;;;1.65;0.50;;;;;;;;;;5076145;28;20021;-85
2021/10/04 13:33:13;;;;;;;0.98;0.45;;;;;;;;;;5070889;28;20208;-85
2021/10/04 13:35:40;;;;;;;1.65;0.70;;;;;;;;;;5075875;28;20033;-85
2021/10/04 13:38:06;;;;;;;0.90;0.50;;;;;;;;;;5077821;28;20510;-84
2021/10/04 13:40:33;;;;;;;1.67;0.60;;;;;;;;;;5077636;28;20028;-83
2021/10/04 13:42:59;;;;;;;1.65;0.57;;;;;;;;;;5074710;28;20901;-85
2021/10/04 13:45:25;;;;;;;2.55;0.80;;;;;;;;;;5068827;28;20021;-87
2021/10/04 13:47:52;;;;;;;1.25;0.60;;;;;;;;;;5071301;28;20031;-88
2021/10/04 13:50:20;;;;;;;1.27;0.50;;;;;;;;;;5073770;28;20040;-86
2021/10/04 13:52:46;;;;;;;0.95;0.73;;;;;;;;;;5072397;28;20096;-88
2021/10/04 13:55:13;;;;;;;2.42;0.50;;;;;;;;;;5072616;28;20024;-86
2021/10/04 13:57:39;;;;;;;0.77;0.40;;;;;;;;;;5079279;28;20039;-88
2021/10/04 14:00:07;;;;;;;2.22;0.75;;;;;;;;;;5076056;28;20024;-88
2021/10/04 14:02:33;;;;;;;1.05;0.70;;;;;;;;;;5081996;28;20512;-88
2021/10/04 14:05:00;;;;;;;0.50;0.50;;;;;;;;;;5071352;28;20494;-89
2021/10/04 14:07:28;;;;;;;0.45;0.45;;;;;;;;;;5073846;28;20503;-87
2021/10/04 14:09:54;;;;;;;0.30;0.30;;;;;;;;;;5072102;28;20032;-88
2021/10/04 14:12:20;;;;;;;0.50;0.40;;;;;;;;;;5068715;28;20052;-85
2021/10/04 14:14:46;;;;;;;0.95;0.70;;;;;;;;;;5070521;28;20040;-82
2021/10/04 14:17:12;;;;;;;0.73;0.50;;;;;;;;;;5074265;28;20043;-82
2021/10/04 14:19:39;;;;;;;0.93;0.60;;;;;;;;;;5069092;28;20021;-84
2021/10/04 14:22:05;;;;;;;1.65;0.70;;;;;;;;;;5067554;28;20078;-84
2021/10/04 14:24:32;;;;;;;0.90;0.50;;;;;;;;;;5067562;28;20028;-82
2021/10/04 14:26:58;;;;;;;0.82;0.60;;;;;;;;;;5068295;28;20028;-84
2021/10/04 14:29:24;;;;;;;0.60;0.40;;;;;;;;;;5074264;28;20063;-84
2021/10/04 14:31:50;;;;;;;3.40;0.57;;;;;;;;;;5072165;28;20036;-83
2021/10/04 14:34:16;;;;;;;2.53;0.68;;;;;;;;;;5068197;28;20027;-86
2021/10/04 14:36:42;;;;;;;1.52;0.60;;;;;;;;;;5077841;28;20489;-86
2021/10/04 14:39:08;;;;;;;0.50;0.40;;;;;;;;;;5070707;28;20024;-85
2021/10/04 14:41:34;;;;;;;0.40;0.40;;;;;;;;;;5067713;28;20037;-88